Murdock, Nebraska
Current Conditions -  °F | °C
As of 8:35 PM on Tuesday 21 Oct 2014 (Local Time) from KPMV Reporting Station
Clear Clear  
Wind Chill: 15°   Ceiling: Unl
Heat Index: 15°   Visibility: 10mi
Dew Point:   Wind: 7mph
Humidity: 43%   Direction: 120°ESE
Pressure: 30.06"   Gusts: NA
Location:  40.93°N, 96.28°W
Report Text: KPMV 220135Z AUTO 12006KT 10SM CLR 15/03 A3006 RMK AO2 T01510027
Loading
Personal Weather Stations






























Interactive Weather Map New forecast layout! Learn more

10-Day Weather Forecast

Advertisements
Track Severe Weather on mobile